createdAt,value
2023-04-10T00:01:06.492Z,12.50
2023-04-10T00:03:28.226Z,12.80
2023-04-10T00:05:49.778Z,13.60
2023-04-10T00:08:11.218Z,13.60
2023-04-10T00:10:33.408Z,12.17
2023-04-10T00:12:56.435Z,14.23
2023-04-10T00:15:17.969Z,12.93
2023-04-10T00:17:39.427Z,16.13
2023-04-10T00:20:01.318Z,15.30
2023-04-10T00:22:22.752Z,11.17
2023-04-10T00:24:44.217Z,12.97
2023-04-10T00:27:05.745Z,12.20
2023-04-10T00:29:27.367Z,13.30
2023-04-10T00:31:49.138Z,12.40
2023-04-10T00:34:10.766Z,13.17
2023-04-10T00:36:32.393Z,13.67
2023-04-10T00:38:53.950Z,11.40
2023-04-10T00:41:16.827Z,11.90
2023-04-10T00:43:38.299Z,12.70
2023-04-10T00:45:59.883Z,11.40
2023-04-10T00:48:21.477Z,15.70
2023-04-10T00:50:43.145Z,12.27
2023-04-10T00:53:04.763Z,13.93
2023-04-10T00:55:26.499Z,12.17
2023-04-10T00:57:48.034Z,14.90
2023-04-10T01:00:10.062Z,14.47
2023-04-10T01:02:32.362Z,14.27
2023-04-10T01:04:54.092Z,13.10
2023-04-10T01:07:53.981Z,12.80
2023-04-10T01:10:26.097Z,13.13
2023-04-10T01:13:06.178Z,13.73
2023-04-10T01:15:30.842Z,14.93
2023-04-10T01:18:19.407Z,14.80
2023-04-10T01:20:42.511Z,15.03
2023-04-10T01:23:36.119Z,14.03
2023-04-10T01:26:03.806Z,15.77
2023-04-10T01:28:28.031Z,13.67
2023-04-10T01:30:54.064Z,12.07
2023-04-10T01:33:18.698Z,15.40
2023-04-10T01:35:43.364Z,15.07
2023-04-10T01:38:07.289Z,13.83
2023-04-10T01:40:29.721Z,14.50
2023-04-10T01:42:55.384Z,14.37
2023-04-10T01:45:21.079Z,13.37
2023-04-10T01:47:43.156Z,13.83
2023-04-10T01:50:06.834Z,15.67
2023-04-10T01:52:30.243Z,14.73
2023-04-10T01:54:53.310Z,15.10
2023-04-10T01:57:16.424Z,19.33
2023-04-10T01:59:39.495Z,17.87
2023-04-10T02:02:01.710Z,15.93
2023-04-10T02:04:23.360Z,16.93
2023-04-10T02:07:20.033Z,17.87
2023-04-10T02:09:58.071Z,15.20
2023-04-10T02:12:26.554Z,16.90
2023-04-10T02:14:49.388Z,16.20
2023-04-10T02:17:14.624Z,19.63
2023-04-10T02:19:38.495Z,15.03
2023-04-10T02:22:00.116Z,16.80
2023-04-10T02:24:22.279Z,15.47
2023-04-10T02:26:51.178Z,16.67
2023-04-10T02:29:12.704Z,16.47
2023-04-10T02:31:34.179Z,16.80
2023-04-10T02:33:55.993Z,16.37
2023-04-10T02:36:17.664Z,15.10
2023-04-10T02:38:39.139Z,14.60
2023-04-10T02:41:00.771Z,16.63
2023-04-10T02:43:22.479Z,16.43
2023-04-10T02:45:44.002Z,16.03
2023-04-10T02:48:06.287Z,16.50
2023-04-10T02:50:29.744Z,15.53
2023-04-10T02:52:51.328Z,15.03
2023-04-10T02:55:13.033Z,15.50
2023-04-10T02:57:34.967Z,18.40
2023-04-10T02:59:56.390Z,15.43
2023-04-10T03:02:17.999Z,15.23
2023-04-10T03:04:39.534Z,17.30
2023-04-10T03:07:01.050Z,16.07
2023-04-10T03:09:22.494Z,15.97
2023-04-10T03:11:43.982Z,17.07
2023-04-10T03:14:05.507Z,15.97
2023-04-10T03:16:27.039Z,14.73
2023-04-10T03:18:48.640Z,15.57
2023-04-10T03:21:10.595Z,16.83
2023-04-10T03:23:32.080Z,17.43
2023-04-10T03:25:54.834Z,18.80
2023-04-10T03:28:16.327Z,23.03
2023-04-10T03:30:37.826Z,18.33
2023-04-10T03:32:59.297Z,17.70
2023-04-10T03:35:20.939Z,16.17
2023-04-10T03:37:42.564Z,19.03
2023-04-10T03:40:08.814Z,14.73
2023-04-10T03:42:30.592Z,18.73
2023-04-10T03:44:52.083Z,17.77
2023-04-10T03:47:13.738Z,16.63
2023-04-10T03:49:35.715Z,16.57
2023-04-10T03:51:57.225Z,18.77
2023-04-10T03:54:18.668Z,18.00
2023-04-10T03:56:40.159Z,18.67
2023-04-10T03:59:01.648Z,18.13
2023-04-10T04:01:23.189Z,18.07
2023-04-10T04:03:44.887Z,17.40
2023-04-10T04:06:06.880Z,19.47
2023-04-10T04:08:28.321Z,20.50
2023-04-10T04:10:49.805Z,18.17
2023-04-10T04:13:11.227Z,17.17
2023-04-10T04:15:32.653Z,15.80
2023-04-10T04:17:54.185Z,19.57
2023-04-10T04:20:15.884Z,17.30
2023-04-10T04:22:37.320Z,20.53
2023-04-10T04:24:58.779Z,17.73
2023-04-10T04:27:21.803Z,19.40
2023-04-10T04:29:43.252Z,17.97
2023-04-10T04:32:04.866Z,17.43
2023-04-10T04:34:26.409Z,17.33
2023-04-10T04:36:47.901Z,18.97
2023-04-10T04:39:09.349Z,17.83
2023-04-10T04:41:32.533Z,16.83
2023-04-10T04:43:56.043Z,17.27
2023-04-10T04:46:17.823Z,19.30
2023-04-10T04:48:39.394Z,18.07
2023-04-10T04:51:00.961Z,18.63
2023-04-10T04:53:22.747Z,16.93
2023-04-10T04:55:44.253Z,17.90
2023-04-10T04:58:05.876Z,21.00
2023-04-10T05:00:27.333Z,18.23
2023-04-10T05:02:48.938Z,19.77
2023-04-10T05:05:10.514Z,17.17
2023-04-10T05:07:33.067Z,18.47
2023-04-10T05:09:54.561Z,18.77
2023-04-10T05:12:16.386Z,17.73
2023-04-10T05:14:37.843Z,17.37
2023-04-10T05:17:01.058Z,20.17
2023-04-10T05:19:23.756Z,20.67
2023-04-10T05:21:45.255Z,19.53
2023-04-10T05:24:06.730Z,23.23
2023-04-10T05:26:28.212Z,20.20
2023-04-10T05:28:49.826Z,18.27
2023-04-10T05:31:11.354Z,18.73
2023-04-10T05:33:32.893Z,19.43
2023-04-10T05:35:54.878Z,20.03
2023-04-10T05:38:16.314Z,17.37
2023-04-10T05:40:37.792Z,20.07
2023-04-10T05:42:59.214Z,17.23
2023-04-10T05:45:21.097Z,19.57
2023-04-10T05:47:42.611Z,17.07
2023-04-10T05:50:04.378Z,19.93
2023-04-10T05:52:25.816Z,20.33
2023-04-10T05:54:47.397Z,22.07
2023-04-10T05:57:08.890Z,20.17
2023-04-10T05:59:30.402Z,17.47
2023-04-10T06:01:52.654Z,18.77
2023-04-10T06:04:14.497Z,19.90
2023-04-10T06:06:36.227Z,19.03
2023-04-10T06:08:57.680Z,20.67
2023-04-10T06:11:19.105Z,19.37
2023-04-10T06:13:40.628Z,23.97
2023-04-10T06:16:02.164Z,20.50
2023-04-10T06:18:23.689Z,22.53
2023-04-10T06:20:45.302Z,21.80
2023-04-10T06:23:07.023Z,19.77
2023-04-10T06:25:28.656Z,22.07
2023-04-10T06:27:50.766Z,22.53
2023-04-10T06:30:12.442Z,19.67
2023-04-10T06:32:34.031Z,20.03
2023-04-10T06:34:55.961Z,22.47
2023-04-10T06:37:17.458Z,22.73
2023-04-10T06:39:39.432Z,24.53
2023-04-10T06:42:01.644Z,21.30
2023-04-10T06:44:23.285Z,21.07
2023-04-10T06:46:44.805Z,20.27
2023-04-10T06:49:06.321Z,20.50
2023-04-10T06:51:27.854Z,24.27
2023-04-10T06:53:49.390Z,21.73
2023-04-10T06:56:11.246Z,20.87
2023-04-10T06:58:32.772Z,23.10
2023-04-10T07:00:54.641Z,21.10
2023-04-10T07:03:16.456Z,20.10
2023-04-10T07:05:39.017Z,18.73
2023-04-10T07:08:01.605Z,18.03
2023-04-10T07:10:23.376Z,18.80
2023-04-10T07:12:44.844Z,18.77
2023-04-10T07:15:07.996Z,19.73
2023-04-10T07:17:29.512Z,19.63
2023-04-10T07:19:51.077Z,21.13
2023-04-10T07:22:12.667Z,21.03
2023-04-10T07:24:34.139Z,18.93
2023-04-10T07:26:57.242Z,19.83
2023-04-10T07:29:19.237Z,20.30
2023-04-10T07:31:40.828Z,18.73
2023-04-10T07:34:02.983Z,20.13
2023-04-10T07:36:24.496Z,19.20
2023-04-10T07:38:46.360Z,17.80
2023-04-10T07:41:07.991Z,19.03
2023-04-10T07:43:29.704Z,19.17
2023-04-10T07:45:51.711Z,18.70
2023-04-10T07:48:13.322Z,17.43
2023-04-10T07:50:36.208Z,18.13
2023-04-10T07:52:57.772Z,19.20
2023-04-10T07:55:19.313Z,18.90
2023-04-10T07:57:42.192Z,18.87
2023-04-10T08:00:04.431Z,18.93
2023-04-10T08:02:26.072Z,19.47
2023-04-10T08:04:48.018Z,18.13
2023-04-10T08:07:09.558Z,17.70
2023-04-10T08:09:31.144Z,16.53
2023-04-10T08:11:52.587Z,17.07
2023-04-10T08:14:14.273Z,16.77
2023-04-10T08:16:40.421Z,18.03
2023-04-10T08:19:05.258Z,17.63
2023-04-10T08:21:28.591Z,18.13
2023-04-10T08:23:51.665Z,17.40
2023-04-10T08:26:13.762Z,16.63
2023-04-10T08:28:36.445Z,16.37
2023-04-10T08:30:58.275Z,17.03
2023-04-10T08:33:19.846Z,17.17
2023-04-10T08:35:41.337Z,14.97
2023-04-10T08:38:13.498Z,14.80
2023-04-10T08:40:37.782Z,14.90
2023-04-10T08:42:59.324Z,16.63
2023-04-10T08:45:20.814Z,17.73
2023-04-10T08:47:44.212Z,15.87
2023-04-10T08:50:12.990Z,17.50
2023-04-10T08:52:36.477Z,19.13
2023-04-10T08:55:00.290Z,22.17
2023-04-10T08:57:22.424Z,17.00
2023-04-10T08:59:44.000Z,16.30
2023-04-10T09:02:06.499Z,16.63
2023-04-10T09:04:28.284Z,16.50
2023-04-10T09:06:49.948Z,17.43
2023-04-10T09:09:11.487Z,14.97
2023-04-10T09:12:04.060Z,13.97
2023-04-10T09:14:30.830Z,13.87
2023-04-10T09:16:53.873Z,13.40
2023-04-10T09:19:34.128Z,14.90
2023-04-10T09:21:56.265Z,14.53
2023-04-10T09:24:17.752Z,15.50
2023-04-10T09:26:39.195Z,13.40
2023-04-10T09:29:05.286Z,12.23
2023-04-10T09:31:38.069Z,11.70
2023-04-10T09:34:13.820Z,11.37
2023-04-10T09:36:36.777Z,10.77
2023-04-10T09:38:58.362Z,13.47
2023-04-10T09:41:19.845Z,14.07
2023-04-10T09:43:43.495Z,12.57
2023-04-10T09:46:05.333Z,11.45
2023-04-10T09:48:26.897Z,8.90
2023-04-10T09:50:48.804Z,10.70
2023-04-10T09:53:12.579Z,11.85
2023-04-10T09:55:36.345Z,9.23
2023-04-10T09:57:58.819Z,9.48
2023-04-10T10:00:20.679Z,9.80
2023-04-10T10:02:42.588Z,10.20
2023-04-10T10:05:05.389Z,11.60
2023-04-10T10:07:27.728Z,11.05
2023-04-10T10:09:51.654Z,9.63
2023-04-10T10:12:16.892Z,9.70
2023-04-10T10:14:52.843Z,9.38
2023-04-10T10:17:18.160Z,9.20
2023-04-10T10:19:48.742Z,9.32
2023-04-10T10:22:11.426Z,8.65
2023-04-10T10:24:33.979Z,10.80
2023-04-10T10:26:58.353Z,9.00
2023-04-10T10:29:22.356Z,8.57
2023-04-10T10:31:44.633Z,10.45
2023-04-10T10:34:09.671Z,8.88
2023-04-10T10:36:34.512Z,7.45
2023-04-10T10:39:20.555Z,9.48
2023-04-10T10:41:54.528Z,7.53
2023-04-10T10:44:29.672Z,8.00
2023-04-10T10:46:59.118Z,9.65
2023-04-10T10:49:20.668Z,7.25
2023-04-10T10:51:49.962Z,6.20
2023-04-10T10:54:34.421Z,7.15
2023-04-10T10:56:56.103Z,6.22
2023-04-10T10:59:17.509Z,6.50
2023-04-10T11:02:17.729Z,6.45
2023-04-10T11:04:46.503Z,6.72
2023-04-10T11:07:07.973Z,6.18
2023-04-10T11:09:47.446Z,7.53
2023-04-10T11:12:08.889Z,5.72
2023-04-10T11:14:31.171Z,7.15
2023-04-10T11:16:52.732Z,5.57
2023-04-10T11:19:16.404Z,6.90
2023-04-10T11:22:01.001Z,6.30
2023-04-10T11:24:22.459Z,6.93
2023-04-10T11:26:44.012Z,6.47
2023-04-10T11:29:17.772Z,7.68
2023-04-10T11:31:40.226Z,6.78
2023-04-10T11:34:07.922Z,7.88
2023-04-10T11:36:30.575Z,6.25
2023-04-10T11:38:59.992Z,7.40
2023-04-10T11:41:21.718Z,6.82
2023-04-10T11:43:43.161Z,7.45
2023-04-10T11:46:07.806Z,6.65
2023-04-10T11:48:29.897Z,8.18
2023-04-10T11:50:51.385Z,8.32
2023-04-10T11:53:20.612Z,9.45
2023-04-10T11:55:42.082Z,6.90
2023-04-10T11:58:03.579Z,7.15
2023-04-10T12:00:25.041Z,7.60
2023-04-10T12:02:56.125Z,6.90
2023-04-10T12:05:17.883Z,6.95
2023-04-10T12:07:39.455Z,8.30
2023-04-10T12:10:02.084Z,7.38
2023-04-10T12:12:36.109Z,6.85
2023-04-10T12:14:57.597Z,8.50
2023-04-10T12:17:19.043Z,7.75
2023-04-10T12:19:41.010Z,7.20
2023-04-10T12:22:03.144Z,6.93
2023-04-10T12:24:42.285Z,7.00
2023-04-10T12:27:04.060Z,7.57
2023-04-10T12:29:27.776Z,7.05
2023-04-10T12:31:49.333Z,5.85
2023-04-10T12:34:18.714Z,5.95
2023-04-10T12:36:40.435Z,8.82
2023-04-10T12:39:06.114Z,7.60
2023-04-10T12:41:31.209Z,6.13
2023-04-10T12:43:54.140Z,6.18
2023-04-10T12:46:27.751Z,5.90
2023-04-10T12:48:50.482Z,6.13
2023-04-10T12:51:11.947Z,6.32
2023-04-10T12:53:43.507Z,6.38
2023-04-10T12:56:08.908Z,5.97
2023-04-10T12:58:33.740Z,5.60
2023-04-10T13:00:58.784Z,5.93
2023-04-10T13:03:20.617Z,4.65
2023-04-10T13:05:42.262Z,4.93
2023-04-10T13:08:03.842Z,4.22
2023-04-10T13:10:25.328Z,4.30
2023-04-10T13:12:47.082Z,4.70
2023-04-10T13:15:09.031Z,4.50
2023-04-10T13:17:30.577Z,4.40
2023-04-10T13:19:52.651Z,4.03
2023-04-10T13:22:14.469Z,4.60
2023-04-10T13:24:37.081Z,5.18
2023-04-10T13:26:58.633Z,4.40
2023-04-10T13:29:20.329Z,4.22
2023-04-10T13:31:41.838Z,4.53
2023-04-10T13:34:03.321Z,4.57
2023-04-10T13:36:28.434Z,4.10
2023-04-10T13:38:50.007Z,4.88
2023-04-10T13:41:11.488Z,4.97
2023-04-10T13:43:33.128Z,4.93
2023-04-10T13:45:54.578Z,4.60
2023-04-10T13:48:20.337Z,5.53
2023-04-10T13:50:43.531Z,5.30
2023-04-10T13:53:05.054Z,5.57
2023-04-10T13:55:26.530Z,6.00
2023-04-10T13:57:47.960Z,6.20
2023-04-10T14:00:10.345Z,5.88
2023-04-10T14:02:32.031Z,5.50
2023-04-10T14:04:53.615Z,5.97
2023-04-10T14:07:15.060Z,6.53
2023-04-10T14:09:36.583Z,11.07
2023-04-10T14:11:58.121Z,12.80
2023-04-10T14:14:19.560Z,6.28
2023-04-10T14:16:41.025Z,6.05
2023-04-10T14:19:02.528Z,6.50
2023-04-10T14:21:23.961Z,6.55
2023-04-10T14:23:45.543Z,7.80
2023-04-10T14:26:07.176Z,7.00
2023-04-10T14:28:29.286Z,6.05
2023-04-10T14:30:51.662Z,6.70
2023-04-10T14:33:13.271Z,6.88
2023-04-10T14:35:34.940Z,6.85
2023-04-10T14:37:56.370Z,6.32
2023-04-10T14:40:17.824Z,6.10
2023-04-10T14:42:39.285Z,5.80
2023-04-10T14:45:00.776Z,6.18
2023-04-10T14:47:22.643Z,6.13
2023-04-10T14:49:44.178Z,5.85
2023-04-10T14:52:05.773Z,5.40
2023-04-10T14:54:27.291Z,5.57
2023-04-10T14:56:49.232Z,5.20
2023-04-10T14:59:11.614Z,5.63
2023-04-10T15:01:33.815Z,5.50
2023-04-10T15:03:55.742Z,5.22
2023-04-10T15:06:17.473Z,5.60
2023-04-10T15:08:40.922Z,5.30
2023-04-10T15:11:05.058Z,5.70
2023-04-10T15:13:26.601Z,5.53
2023-04-10T15:15:49.132Z,5.07
2023-04-10T15:18:10.757Z,5.05
2023-04-10T15:20:32.286Z,5.07
2023-04-10T15:22:53.774Z,4.50
2023-04-10T15:25:15.324Z,4.43
2023-04-10T15:27:36.768Z,5.18
2023-04-10T15:29:58.297Z,4.38
2023-04-10T15:32:19.848Z,4.45
2023-04-10T15:34:41.383Z,4.78
2023-04-10T15:37:02.854Z,4.70
2023-04-10T15:39:24.330Z,4.80
2023-04-10T15:41:45.776Z,5.25
2023-04-10T15:44:07.221Z,4.72
2023-04-10T15:48:53.832Z,4.57
2023-04-10T15:51:15.334Z,4.20
2023-04-10T15:53:36.995Z,5.00
2023-04-10T15:55:58.652Z,4.72
2023-04-10T15:58:20.334Z,3.97
2023-04-10T16:00:41.804Z,4.97
2023-04-10T16:03:03.677Z,4.10
2023-04-10T16:05:25.448Z,3.97
2023-04-10T16:07:47.033Z,3.97
2023-04-10T16:10:09.365Z,4.30
2023-04-10T16:12:30.883Z,4.60
2023-04-10T16:14:52.295Z,4.70
2023-04-10T16:17:13.754Z,4.45
2023-04-10T16:19:35.262Z,4.68
2023-04-10T16:21:57.228Z,4.72
2023-04-10T16:24:18.664Z,4.72
2023-04-10T16:26:40.200Z,4.82
2023-04-10T16:29:01.637Z,5.15
2023-04-10T16:31:23.148Z,5.55
2023-04-10T16:33:44.596Z,5.35
2023-04-10T16:36:06.578Z,5.03
2023-04-10T16:38:28.029Z,5.03
2023-04-10T16:40:49.537Z,4.38
2023-04-10T16:43:12.091Z,4.28
2023-04-10T16:45:33.663Z,4.93
2023-04-10T16:47:55.330Z,4.28
2023-04-10T16:50:16.897Z,8.57
2023-04-10T16:52:38.487Z,4.47
2023-04-10T16:54:59.921Z,4.57
2023-04-10T16:57:21.576Z,5.20
2023-04-10T16:59:43.844Z,5.65
2023-04-10T17:02:05.424Z,3.80
2023-04-10T17:04:26.970Z,5.93
2023-04-10T17:06:48.619Z,6.20
2023-04-10T17:09:10.114Z,5.72
2023-04-10T17:11:31.649Z,5.88
2023-04-10T17:13:53.267Z,4.38
2023-04-10T17:16:15.085Z,9.75
2023-04-10T17:18:36.646Z,3.97
2023-04-10T17:20:58.166Z,9.20
2023-04-10T17:23:19.621Z,5.38
2023-04-10T17:25:41.888Z,4.78
2023-04-10T17:28:03.670Z,4.13
2023-04-10T17:30:25.159Z,4.13
2023-04-10T17:32:48.686Z,3.95
2023-04-10T17:35:10.251Z,3.53
2023-04-10T17:37:31.766Z,4.05
2023-04-10T17:39:54.536Z,4.20
2023-04-10T17:42:16.091Z,3.83
2023-04-10T17:44:37.532Z,3.60
2023-04-10T17:46:59.132Z,4.32
2023-04-10T17:49:21.815Z,3.22
2023-04-10T17:51:43.350Z,3.30
2023-04-10T17:54:04.886Z,4.38
2023-04-10T17:56:26.500Z,3.95
2023-04-10T17:58:48.133Z,3.13
2023-04-10T18:01:09.603Z,4.68
2023-04-10T18:03:31.294Z,4.50
2023-04-10T18:05:53.275Z,3.95
2023-04-10T18:08:14.697Z,3.53
2023-04-10T18:10:36.254Z,3.72
2023-04-10T18:12:58.644Z,4.00
2023-04-10T18:15:20.264Z,3.90
2023-04-10T18:17:41.776Z,4.05
2023-04-10T18:20:03.407Z,3.58
2023-04-10T18:22:24.887Z,3.92
2023-04-10T18:24:47.551Z,4.97
2023-04-10T18:27:09.014Z,4.10
2023-04-10T18:29:31.135Z,4.20
2023-04-10T18:31:52.607Z,4.35
2023-04-10T18:34:14.434Z,3.65
2023-04-10T18:36:36.165Z,3.87
2023-04-10T18:38:58.104Z,3.80
2023-04-10T18:41:19.584Z,4.03
2023-04-10T18:43:41.446Z,4.00
2023-04-10T18:46:04.050Z,4.40
2023-04-10T18:48:25.629Z,4.47
2023-04-10T18:50:47.125Z,3.75
2023-04-10T18:53:08.609Z,5.30
2023-04-10T18:55:30.082Z,4.13
2023-04-10T18:57:51.519Z,4.53
2023-04-10T19:00:13.565Z,4.97
2023-04-10T19:02:35.355Z,5.70
2023-04-10T19:04:56.982Z,5.30
2023-04-10T19:07:18.440Z,4.53
2023-04-10T19:09:39.902Z,5.17
2023-04-10T19:12:02.315Z,4.67
2023-04-10T19:14:23.856Z,4.20
2023-04-10T19:16:45.386Z,4.60
2023-04-10T19:19:06.872Z,4.13
2023-04-10T19:21:28.523Z,3.73
2023-04-10T19:23:49.987Z,3.67
2023-04-10T19:26:11.449Z,4.27
2023-04-10T19:28:34.720Z,4.90
2023-04-10T19:30:56.300Z,4.27
2023-04-10T19:33:19.221Z,4.43
2023-04-10T19:35:40.738Z,3.87
2023-04-10T19:38:02.326Z,5.40
2023-04-10T19:40:24.036Z,3.90
2023-04-10T19:42:45.464Z,4.23
2023-04-10T19:45:07.535Z,5.03
2023-04-10T19:47:28.965Z,6.00
2023-04-10T19:49:50.656Z,5.10
2023-04-10T19:52:12.172Z,3.57
2023-04-10T19:54:33.628Z,4.37
2023-04-10T19:56:56.810Z,4.63
2023-04-10T19:59:18.335Z,4.40
2023-04-10T20:01:39.857Z,4.47
2023-04-10T20:04:01.381Z,4.10
2023-04-10T20:06:22.938Z,3.80
2023-04-10T20:08:44.492Z,3.97
2023-04-10T20:11:06.535Z,6.07
2023-04-10T20:13:28.386Z,4.83
2023-04-10T20:15:50.350Z,4.80
2023-04-10T20:18:12.415Z,4.00
2023-04-10T20:20:33.865Z,4.47
2023-04-10T20:22:55.312Z,4.00
2023-04-10T20:25:16.942Z,4.00
2023-04-10T20:27:38.474Z,5.50
2023-04-10T20:29:59.978Z,4.87
2023-04-10T20:32:21.404Z,4.30
2023-04-10T20:34:42.880Z,4.90
2023-04-10T20:37:05.782Z,6.77
2023-04-10T20:39:27.280Z,4.27
2023-04-10T20:41:48.740Z,6.53
2023-04-10T20:44:10.206Z,4.07
2023-04-10T20:46:31.752Z,4.17
2023-04-10T20:48:55.641Z,4.50
2023-04-10T20:51:17.217Z,4.20
2023-04-10T20:53:38.765Z,4.63
2023-04-10T20:56:00.365Z,3.90
2023-04-10T20:58:22.441Z,4.20
2023-04-10T21:00:44.030Z,5.23
2023-04-10T21:03:05.975Z,4.00
2023-04-10T21:05:27.504Z,3.70
2023-04-10T21:07:49.011Z,4.73
2023-04-10T21:10:10.528Z,4.00
2023-04-10T21:12:31.957Z,4.53
2023-04-10T21:14:53.408Z,3.97
2023-04-10T21:17:16.742Z,3.73
2023-04-10T21:19:38.187Z,3.83
2023-04-10T21:21:59.689Z,3.83
2023-04-10T21:24:21.154Z,4.60
2023-04-10T21:26:42.635Z,4.50
2023-04-10T21:29:04.185Z,5.67
2023-04-10T21:31:25.782Z,5.67
2023-04-10T21:33:47.454Z,4.40
2023-04-10T21:36:09.179Z,4.33
2023-04-10T21:38:30.684Z,5.33
2023-04-10T21:40:53.570Z,4.60
2023-04-10T21:43:15.047Z,4.47
2023-04-10T21:45:37.527Z,4.40
2023-04-10T21:48:00.463Z,4.47
2023-04-10T21:50:22.009Z,4.73
2023-04-10T21:52:43.484Z,4.70
2023-04-10T21:55:06.409Z,6.20
2023-04-10T21:57:27.967Z,4.83
2023-04-10T21:59:49.431Z,4.33
2023-04-10T22:02:11.117Z,5.10
2023-04-10T22:04:33.213Z,5.00
2023-04-10T22:06:56.161Z,6.23
2023-04-10T22:09:17.821Z,5.73
2023-04-10T22:11:39.434Z,5.67
2023-04-10T22:14:09.328Z,6.00
2023-04-10T22:16:37.822Z,5.10
2023-04-10T22:19:00.156Z,4.90
2023-04-10T22:21:21.602Z,5.40
2023-04-10T22:23:43.737Z,6.50
2023-04-10T22:26:05.405Z,5.20
2023-04-10T22:28:28.179Z,4.40
2023-04-10T22:30:49.751Z,5.50
2023-04-10T22:33:12.086Z,4.50
2023-04-10T22:35:33.633Z,4.93
2023-04-10T22:37:56.943Z,4.97
2023-04-10T22:40:18.525Z,5.23
2023-04-10T22:42:40.169Z,5.23
2023-04-10T22:45:03.013Z,5.70
2023-04-10T22:47:24.562Z,6.27
2023-04-10T22:49:46.130Z,5.13
2023-04-10T22:52:07.628Z,5.27
2023-04-10T22:54:29.781Z,5.00
2023-04-10T22:56:51.461Z,4.90
2023-04-10T22:59:13.073Z,5.00
2023-04-10T23:01:34.856Z,5.27
2023-04-10T23:03:56.390Z,5.13
2023-04-10T23:06:17.839Z,4.93
2023-04-10T23:08:39.359Z,6.57
2023-04-10T23:11:00.794Z,5.17
2023-04-10T23:13:22.620Z,4.63
2023-04-10T23:15:54.681Z,6.33
2023-04-10T23:18:16.302Z,5.80
2023-04-10T23:20:37.747Z,4.53
2023-04-10T23:22:59.207Z,4.80
2023-04-10T23:25:20.772Z,5.43
2023-04-10T23:27:42.324Z,5.43
2023-04-10T23:30:04.177Z,5.00
2023-04-10T23:32:25.752Z,6.13
2023-04-10T23:34:47.281Z,5.77
2023-04-10T23:37:08.824Z,5.60
2023-04-10T23:39:30.274Z,6.03
2023-04-10T23:41:51.811Z,6.13
2023-04-10T23:44:13.284Z,6.13
2023-04-10T23:46:34.969Z,5.80
2023-04-10T23:48:56.802Z,5.30
2023-04-10T23:51:18.260Z,5.20
2023-04-10T23:53:39.723Z,6.97
2023-04-10T23:56:01.749Z,6.00
2023-04-10T23:58:23.222Z,5.83
